sensor_id;sensor_type;location;lat;lon;timestamp;temperature;humidity
66096;SHT31;53861;53.422;14.530;2022-10-16T00:01:20;14.19;95.87
66096;SHT31;53861;53.422;14.530;2022-10-16T00:03:47;14.23;95.84
66096;SHT31;53861;53.422;14.530;2022-10-16T00:06:16;14.20;95.73
66096;SHT31;53861;53.422;14.530;2022-10-16T00:08:43;14.19;96.02
66096;SHT31;53861;53.422;14.530;2022-10-16T00:11:12;14.20;95.75
66096;SHT31;53861;53.422;14.530;2022-10-16T00:13:40;14.23;95.71
66096;SHT31;53861;53.422;14.530;2022-10-16T00:16:07;14.19;95.66
66096;SHT31;53861;53.422;14.530;2022-10-16T00:18:34;14.25;95.58
66096;SHT31;53861;53.422;14.530;2022-10-16T00:21:02;14.18;95.79
66096;SHT31;53861;53.422;14.530;2022-10-16T00:23:29;14.15;95.95
66096;SHT31;53861;53.422;14.530;2022-10-16T00:25:56;14.10;96.00
66096;SHT31;53861;53.422;14.530;2022-10-16T00:28:25;14.13;96.01
66096;SHT31;53861;53.422;14.530;2022-10-16T00:30:52;14.08;96.06
66096;SHT31;53861;53.422;14.530;2022-10-16T00:33:21;14.09;96.14
66096;SHT31;53861;53.422;14.530;2022-10-16T00:35:48;14.10;96.06
66096;SHT31;53861;53.422;14.530;2022-10-16T00:38:15;14.08;96.14
66096;SHT31;53861;53.422;14.530;2022-10-16T00:40:42;14.08;96.35
66096;SHT31;53861;53.422;14.530;2022-10-16T00:43:12;14.13;96.23
66096;SHT31;53861;53.422;14.530;2022-10-16T00:45:40;14.09;96.27
66096;SHT31;53861;53.422;14.530;2022-10-16T00:48:08;14.16;96.27
66096;SHT31;53861;53.422;14.530;2022-10-16T00:50:37;14.20;96.13
66096;SHT31;53861;53.422;14.530;2022-10-16T00:53:05;14.23;95.96
66096;SHT31;53861;53.422;14.530;2022-10-16T00:55:32;14.18;95.95
66096;SHT31;53861;53.422;14.530;2022-10-16T00:57:59;14.15;95.94
66096;SHT31;53861;53.422;14.530;2022-10-16T01:00:26;14.13;96.08
66096;SHT31;53861;53.422;14.530;2022-10-16T01:02:55;14.19;95.98
66096;SHT31;53861;53.422;14.530;2022-10-16T01:05:22;14.19;96.10
66096;SHT31;53861;53.422;14.530;2022-10-16T01:07:53;14.18;96.16
66096;SHT31;53861;53.422;14.530;2022-10-16T01:10:23;14.25;96.02
66096;SHT31;53861;53.422;14.530;2022-10-16T01:12:54;14.19;96.17
66096;SHT31;53861;53.422;14.530;2022-10-16T01:15:25;14.19;96.12
66096;SHT31;53861;53.422;14.530;2022-10-16T01:17:56;14.20;96.07
66096;SHT31;53861;53.422;14.530;2022-10-16T01:20:29;14.16;96.14
66096;SHT31;53861;53.422;14.530;2022-10-16T01:23:01;14.20;96.03
66096;SHT31;53861;53.422;14.530;2022-10-16T01:25:34;14.13;96.07
66096;SHT31;53861;53.422;14.530;2022-10-16T01:28:05;14.05;96.23
66096;SHT31;53861;53.422;14.530;2022-10-16T01:30:33;14.02;96.68
66096;SHT31;53861;53.422;14.530;2022-10-16T01:33:01;14.08;96.47
66096;SHT31;53861;53.422;14.530;2022-10-16T01:35:29;14.09;96.44
66096;SHT31;53861;53.422;14.530;2022-10-16T01:37:59;14.15;96.37
66096;SHT31;53861;53.422;14.530;2022-10-16T01:40:27;14.16;96.44
66096;SHT31;53861;53.422;14.530;2022-10-16T01:42:55;14.18;96.35
66096;SHT31;53861;53.422;14.530;2022-10-16T01:45:24;14.13;96.49
66096;SHT31;53861;53.422;14.530;2022-10-16T01:47:52;14.10;96.56
66096;SHT31;53861;53.422;14.530;2022-10-16T01:50:20;14.20;96.26
66096;SHT31;53861;53.422;14.530;2022-10-16T01:52:48;14.18;95.95
66096;SHT31;53861;53.422;14.530;2022-10-16T01:55:17;14.26;95.89
66096;SHT31;53861;53.422;14.530;2022-10-16T01:57:46;14.29;95.76
66096;SHT31;53861;53.422;14.530;2022-10-16T02:00:14;14.30;95.55
66096;SHT31;53861;53.422;14.530;2022-10-16T02:02:44;14.32;95.64
66096;SHT31;53861;53.422;14.530;2022-10-16T02:05:14;14.32;95.63
66096;SHT31;53861;53.422;14.530;2022-10-16T02:07:42;14.30;95.62
66096;SHT31;53861;53.422;14.530;2022-10-16T02:10:09;14.30;95.70
66096;SHT31;53861;53.422;14.530;2022-10-16T02:12:37;14.23;95.94
66096;SHT31;53861;53.422;14.530;2022-10-16T02:15:05;14.32;95.64
66096;SHT31;53861;53.422;14.530;2022-10-16T02:17:32;14.37;95.50
66096;SHT31;53861;53.422;14.530;2022-10-16T02:20:01;14.39;95.40
66096;SHT31;53861;53.422;14.530;2022-10-16T02:22:29;14.40;95.35
66096;SHT31;53861;53.422;14.530;2022-10-16T02:24:58;14.43;95.32
66096;SHT31;53861;53.422;14.530;2022-10-16T02:27:27;14.41;95.22
66096;SHT31;53861;53.422;14.530;2022-10-16T02:29:55;14.33;95.43
66096;SHT31;53861;53.422;14.530;2022-10-16T02:32:27;14.36;95.62
66096;SHT31;53861;53.422;14.530;2022-10-16T02:34:56;14.33;95.59
66096;SHT31;53861;53.422;14.530;2022-10-16T02:37:24;14.34;95.64
66096;SHT31;53861;53.422;14.530;2022-10-16T02:39:51;14.29;95.86
66096;SHT31;53861;53.422;14.530;2022-10-16T02:42:18;14.26;95.91
66096;SHT31;53861;53.422;14.530;2022-10-16T02:44:45;14.33;95.79
66096;SHT31;53861;53.422;14.530;2022-10-16T02:47:12;14.39;95.68
66096;SHT31;53861;53.422;14.530;2022-10-16T02:49:39;14.36;95.70
66096;SHT31;53861;53.422;14.530;2022-10-16T02:52:06;14.40;95.55
66096;SHT31;53861;53.422;14.530;2022-10-16T02:54:34;14.44;95.36
66096;SHT31;53861;53.422;14.530;2022-10-16T02:57:01;14.41;95.44
66096;SHT31;53861;53.422;14.530;2022-10-16T02:59:28;14.33;95.74
66096;SHT31;53861;53.422;14.530;2022-10-16T03:01:54;14.39;95.53
66096;SHT31;53861;53.422;14.530;2022-10-16T03:04:21;14.39;95.61
66096;SHT31;53861;53.422;14.530;2022-10-16T03:06:48;14.41;95.64
66096;SHT31;53861;53.422;14.530;2022-10-16T03:09:15;14.46;95.57
66096;SHT31;53861;53.422;14.530;2022-10-16T03:11:44;14.46;95.40
66096;SHT31;53861;53.422;14.530;2022-10-16T03:14:10;14.53;95.22
66096;SHT31;53861;53.422;14.530;2022-10-16T03:16:37;14.56;94.95
66096;SHT31;53861;53.422;14.530;2022-10-16T03:19:04;14.57;94.92
66096;SHT31;53861;53.422;14.530;2022-10-16T03:21:31;14.46;95.05
66096;SHT31;53861;53.422;14.530;2022-10-16T03:23:58;14.50;94.99
66096;SHT31;53861;53.422;14.530;2022-10-16T03:26:25;14.49;94.95
66096;SHT31;53861;53.422;14.530;2022-10-16T03:28:53;14.41;95.10
66096;SHT31;53861;53.422;14.530;2022-10-16T03:31:20;14.41;95.19
66096;SHT31;53861;53.422;14.530;2022-10-16T03:33:47;14.39;95.45
66096;SHT31;53861;53.422;14.530;2022-10-16T03:36:14;14.36;95.42
66096;SHT31;53861;53.422;14.530;2022-10-16T03:38:41;14.26;95.86
66096;SHT31;53861;53.422;14.530;2022-10-16T03:41:08;14.30;95.91
66096;SHT31;53861;53.422;14.530;2022-10-16T03:43:35;14.30;95.80
66096;SHT31;53861;53.422;14.530;2022-10-16T03:46:03;14.30;95.88
66096;SHT31;53861;53.422;14.530;2022-10-16T03:48:30;14.40;95.60
66096;SHT31;53861;53.422;14.530;2022-10-16T03:50:57;14.32;95.80
66096;SHT31;53861;53.422;14.530;2022-10-16T03:53:24;14.41;95.52
66096;SHT31;53861;53.422;14.530;2022-10-16T03:55:51;14.34;95.48
66096;SHT31;53861;53.422;14.530;2022-10-16T03:58:18;14.26;95.81
66096;SHT31;53861;53.422;14.530;2022-10-16T04:00:45;14.26;95.83
66096;SHT31;53861;53.422;14.530;2022-10-16T04:03:14;14.28;95.79
66096;SHT31;53861;53.422;14.530;2022-10-16T04:05:41;14.25;95.97
66096;SHT31;53861;53.422;14.530;2022-10-16T04:08:08;14.33;95.73
66096;SHT31;53861;53.422;14.530;2022-10-16T04:10:35;14.32;95.68
66096;SHT31;53861;53.422;14.530;2022-10-16T04:13:01;14.34;95.48
66096;SHT31;53861;53.422;14.530;2022-10-16T04:15:28;14.30;95.57
66096;SHT31;53861;53.422;14.530;2022-10-16T04:17:55;14.25;95.68
66096;SHT31;53861;53.422;14.530;2022-10-16T04:20:23;14.23;95.70
66096;SHT31;53861;53.422;14.530;2022-10-16T04:22:50;14.19;95.64
66096;SHT31;53861;53.422;14.530;2022-10-16T04:25:17;14.19;95.77
66096;SHT31;53861;53.422;14.530;2022-10-16T04:27:44;14.08;96.02
66096;SHT31;53861;53.422;14.530;2022-10-16T04:30:11;14.16;96.00
66096;SHT31;53861;53.422;14.530;2022-10-16T04:32:38;14.15;96.02
66096;SHT31;53861;53.422;14.530;2022-10-16T04:35:05;14.01;96.43
66096;SHT31;53861;53.422;14.530;2022-10-16T04:37:34;14.01;96.38
66096;SHT31;53861;53.422;14.530;2022-10-16T04:40:01;13.98;96.52
66096;SHT31;53861;53.422;14.530;2022-10-16T04:42:27;13.94;96.70
66096;SHT31;53861;53.422;14.530;2022-10-16T04:44:54;13.95;96.75
66096;SHT31;53861;53.422;14.530;2022-10-16T04:47:21;13.92;96.85
66096;SHT31;53861;53.422;14.530;2022-10-16T04:49:50;13.92;96.89
66096;SHT31;53861;53.422;14.530;2022-10-16T04:52:16;13.92;96.71
66096;SHT31;53861;53.422;14.530;2022-10-16T04:54:45;13.90;96.79
66096;SHT31;53861;53.422;14.530;2022-10-16T04:57:12;13.95;96.70
66096;SHT31;53861;53.422;14.530;2022-10-16T04:59:39;13.99;96.51
66096;SHT31;53861;53.422;14.530;2022-10-16T05:02:06;13.92;96.62
66096;SHT31;53861;53.422;14.530;2022-10-16T05:04:33;13.90;96.60
66096;SHT31;53861;53.422;14.530;2022-10-16T05:07:00;13.86;96.67
66096;SHT31;53861;53.422;14.530;2022-10-16T05:09:27;13.77;96.80
66096;SHT31;53861;53.422;14.530;2022-10-16T05:11:57;13.74;97.00
66096;SHT31;53861;53.422;14.530;2022-10-16T05:14:24;13.77;96.97
66096;SHT31;53861;53.422;14.530;2022-10-16T05:16:50;13.69;96.99
66096;SHT31;53861;53.422;14.530;2022-10-16T05:19:17;13.64;97.10
66096;SHT31;53861;53.422;14.530;2022-10-16T05:21:44;13.58;97.26
66096;SHT31;53861;53.422;14.530;2022-10-16T05:24:11;13.54;97.24
66096;SHT31;53861;53.422;14.530;2022-10-16T05:26:38;13.47;97.10
66096;SHT31;53861;53.422;14.530;2022-10-16T05:29:06;13.47;97.38
66096;SHT31;53861;53.422;14.530;2022-10-16T05:31:33;13.43;97.14
66096;SHT31;53861;53.422;14.530;2022-10-16T05:34:00;13.37;97.33
66096;SHT31;53861;53.422;14.530;2022-10-16T05:36:27;13.40;97.74
66096;SHT31;53861;53.422;14.530;2022-10-16T05:38:54;13.34;98.05
66096;SHT31;53861;53.422;14.530;2022-10-16T05:41:21;13.34;97.83
66096;SHT31;53861;53.422;14.530;2022-10-16T05:43:50;13.27;97.71
66096;SHT31;53861;53.422;14.530;2022-10-16T05:46:19;13.31;97.76
66096;SHT31;53861;53.422;14.530;2022-10-16T05:48:46;13.28;97.79
66096;SHT31;53861;53.422;14.530;2022-10-16T05:51:13;13.31;97.74
66096;SHT31;53861;53.422;14.530;2022-10-16T05:53:40;13.40;97.71
66096;SHT31;53861;53.422;14.530;2022-10-16T05:56:09;13.36;97.77
66096;SHT31;53861;53.422;14.530;2022-10-16T05:58:37;13.40;97.79
66096;SHT31;53861;53.422;14.530;2022-10-16T06:01:06;13.45;97.71
66096;SHT31;53861;53.422;14.530;2022-10-16T06:03:35;13.48;97.73
66096;SHT31;53861;53.422;14.530;2022-10-16T06:06:07;13.51;97.53
66096;SHT31;53861;53.422;14.530;2022-10-16T06:08:34;13.57;97.60
66096;SHT31;53861;53.422;14.530;2022-10-16T06:11:01;13.61;97.33
66096;SHT31;53861;53.422;14.530;2022-10-16T06:13:28;13.62;97.16
66096;SHT31;53861;53.422;14.530;2022-10-16T06:15:56;13.68;97.11
66096;SHT31;53861;53.422;14.530;2022-10-16T06:18:23;13.61;97.07
66096;SHT31;53861;53.422;14.530;2022-10-16T06:20:51;13.68;97.03
66096;SHT31;53861;53.422;14.530;2022-10-16T06:23:18;13.71;97.03
66096;SHT31;53861;53.422;14.530;2022-10-16T06:25:45;13.69;97.04
66096;SHT31;53861;53.422;14.530;2022-10-16T06:28:12;13.74;96.74
66096;SHT31;53861;53.422;14.530;2022-10-16T06:30:39;13.81;96.44
66096;SHT31;53861;53.422;14.530;2022-10-16T06:33:07;13.79;96.48
66096;SHT31;53861;53.422;14.530;2022-10-16T06:35:34;13.83;96.44
66096;SHT31;53861;53.422;14.530;2022-10-16T06:38:02;14.04;96.14
66096;SHT31;53861;53.422;14.530;2022-10-16T06:40:29;14.10;95.70
66096;SHT31;53861;53.422;14.530;2022-10-16T06:42:56;14.28;94.87
66096;SHT31;53861;53.422;14.530;2022-10-16T06:45:23;14.34;94.81
66096;SHT31;53861;53.422;14.530;2022-10-16T06:47:50;14.47;94.76
66096;SHT31;53861;53.422;14.530;2022-10-16T06:50:16;14.55;94.03
66096;SHT31;53861;53.422;14.530;2022-10-16T06:52:43;14.74;93.98
66096;SHT31;53861;53.422;14.530;2022-10-16T06:55:11;14.94;93.03
66096;SHT31;53861;53.422;14.530;2022-10-16T06:57:38;15.10;92.10
66096;SHT31;53861;53.422;14.530;2022-10-16T07:00:06;15.35;91.17
66096;SHT31;53861;53.422;14.530;2022-10-16T07:02:33;15.62;89.84
66096;SHT31;53861;53.422;14.530;2022-10-16T07:05:03;15.72;90.04
66096;SHT31;53861;53.422;14.530;2022-10-16T07:07:30;16.27;89.19
66096;SHT31;53861;53.422;14.530;2022-10-16T07:09:57;17.07;86.54
66096;SHT31;53861;53.422;14.530;2022-10-16T07:12:25;16.27;86.76
66096;SHT31;53861;53.422;14.530;2022-10-16T07:14:52;16.33;88.54
66096;SHT31;53861;53.422;14.530;2022-10-16T07:17:20;16.30;87.68
66096;SHT31;53861;53.422;14.530;2022-10-16T07:19:47;16.23;87.58
66096;SHT31;53861;53.422;14.530;2022-10-16T07:22:13;16.54;87.30
66096;SHT31;53861;53.422;14.530;2022-10-16T07:24:41;16.65;87.16
66096;SHT31;53861;53.422;14.530;2022-10-16T07:27:13;16.46;87.20
66096;SHT31;53861;53.422;14.530;2022-10-16T07:29:42;16.53;88.68
66096;SHT31;53861;53.422;14.530;2022-10-16T07:32:11;16.27;87.92
66096;SHT31;53861;53.422;14.530;2022-10-16T07:34:38;16.09;87.83
66096;SHT31;53861;53.422;14.530;2022-10-16T07:37:05;15.99;89.61
66096;SHT31;53861;53.422;14.530;2022-10-16T07:39:39;15.79;89.58
66096;SHT31;53861;53.422;14.530;2022-10-16T07:42:10;15.73;90.15
66096;SHT31;53861;53.422;14.530;2022-10-16T07:44:37;15.76;90.18
66096;SHT31;53861;53.422;14.530;2022-10-16T07:47:07;16.02;89.02
66096;SHT31;53861;53.422;14.530;2022-10-16T07:49:34;16.21;89.36
66096;SHT31;53861;53.422;14.530;2022-10-16T07:52:00;16.33;87.80
66096;SHT31;53861;53.422;14.530;2022-10-16T07:54:28;16.61;87.93
66096;SHT31;53861;53.422;14.530;2022-10-16T07:56:55;16.60;87.08
66096;SHT31;53861;53.422;14.530;2022-10-16T07:59:22;17.09;86.17
66096;SHT31;53861;53.422;14.530;2022-10-16T08:01:57;17.98;82.96
66096;SHT31;53861;53.422;14.530;2022-10-16T08:04:40;17.98;83.57
66096;SHT31;53861;53.422;14.530;2022-10-16T08:07:10;18.40;80.34
66096;SHT31;53861;53.422;14.530;2022-10-16T08:09:36;18.47;78.80
66096;SHT31;53861;53.422;14.530;2022-10-16T08:12:03;17.39;83.82
66096;SHT31;53861;53.422;14.530;2022-10-16T08:14:30;16.82;85.41
66096;SHT31;53861;53.422;14.530;2022-10-16T08:16:57;17.05;83.58
66096;SHT31;53861;53.422;14.530;2022-10-16T08:19:24;16.96;83.92
66096;SHT31;53861;53.422;14.530;2022-10-16T08:21:52;16.92;85.38
66096;SHT31;53861;53.422;14.530;2022-10-16T08:24:19;16.75;85.68
66096;SHT31;53861;53.422;14.530;2022-10-16T08:26:46;16.82;84.95
66096;SHT31;53861;53.422;14.530;2022-10-16T08:29:13;16.92;83.82
66096;SHT31;53861;53.422;14.530;2022-10-16T08:31:40;17.71;86.63
66096;SHT31;53861;53.422;14.530;2022-10-16T08:34:07;17.60;81.75
66096;SHT31;53861;53.422;14.530;2022-10-16T08:36:34;17.42;83.04
66096;SHT31;53861;53.422;14.530;2022-10-16T08:39:02;17.38;83.85
66096;SHT31;53861;53.422;14.530;2022-10-16T08:41:33;17.05;83.47
66096;SHT31;53861;53.422;14.530;2022-10-16T08:44:09;17.02;85.10
66096;SHT31;53861;53.422;14.530;2022-10-16T08:46:40;16.81;85.38
66096;SHT31;53861;53.422;14.530;2022-10-16T08:49:11;16.79;85.01
66096;SHT31;53861;53.422;14.530;2022-10-16T08:51:40;16.98;84.36
66096;SHT31;53861;53.422;14.530;2022-10-16T08:54:18;16.88;85.73
66096;SHT31;53861;53.422;14.530;2022-10-16T08:56:47;17.07;84.62
66096;SHT31;53861;53.422;14.530;2022-10-16T08:59:14;17.15;84.01
66096;SHT31;53861;53.422;14.530;2022-10-16T09:01:44;17.38;83.85
66096;SHT31;53861;53.422;14.530;2022-10-16T09:04:23;17.53;82.89
66096;SHT31;53861;53.422;14.530;2022-10-16T09:06:56;17.59;83.27
66096;SHT31;53861;53.422;14.530;2022-10-16T09:09:30;17.43;82.74
66096;SHT31;53861;53.422;14.530;2022-10-16T09:12:00;17.81;81.68
66096;SHT31;53861;53.422;14.530;2022-10-16T09:14:40;17.93;82.01
66096;SHT31;53861;53.422;14.530;2022-10-16T09:17:14;17.69;82.33
66096;SHT31;53861;53.422;14.530;2022-10-16T09:19:46;17.79;80.73
66096;SHT31;53861;53.422;14.530;2022-10-16T09:22:16;17.81;81.18
66096;SHT31;53861;53.422;14.530;2022-10-16T09:24:44;17.74;81.40
66096;SHT31;53861;53.422;14.530;2022-10-16T09:27:12;18.10;83.51
66096;SHT31;53861;53.422;14.530;2022-10-16T09:29:40;18.07;85.52
66096;SHT31;53861;53.422;14.530;2022-10-16T09:32:09;17.83;83.62
66096;SHT31;53861;53.422;14.530;2022-10-16T09:34:39;17.87;80.99
66096;SHT31;53861;53.422;14.530;2022-10-16T09:37:08;17.93;82.00
66096;SHT31;53861;53.422;14.530;2022-10-16T09:39:45;17.76;80.29
66096;SHT31;53861;53.422;14.530;2022-10-16T09:42:14;17.49;81.86
66096;SHT31;53861;53.422;14.530;2022-10-16T09:44:41;17.62;81.99
66096;SHT31;53861;53.422;14.530;2022-10-16T09:47:12;17.94;83.28
66096;SHT31;53861;53.422;14.530;2022-10-16T09:49:39;18.27;82.86
66096;SHT31;53861;53.422;14.530;2022-10-16T09:52:16;18.40;81.83
66096;SHT31;53861;53.422;14.530;2022-10-16T09:54:50;18.95;80.22
66096;SHT31;53861;53.422;14.530;2022-10-16T09:57:18;19.02;75.10
66096;SHT31;53861;53.422;14.530;2022-10-16T09:59:46;18.79;78.60
66096;SHT31;53861;53.422;14.530;2022-10-16T10:02:14;18.44;77.40
66096;SHT31;53861;53.422;14.530;2022-10-16T10:04:44;18.48;78.45
66096;SHT31;53861;53.422;14.530;2022-10-16T10:07:18;19.51;74.51
66096;SHT31;53861;53.422;14.530;2022-10-16T10:09:46;22.13;72.88
66096;SHT31;53861;53.422;14.530;2022-10-16T10:12:20;21.15;68.42
66096;SHT31;53861;53.422;14.530;2022-10-16T10:14:48;21.06;70.22
66096;SHT31;53861;53.422;14.530;2022-10-16T10:17:16;20.91;68.95
66096;SHT31;53861;53.422;14.530;2022-10-16T10:19:46;20.02;70.77
66096;SHT31;53861;53.422;14.530;2022-10-16T10:22:16;20.09;71.67
66096;SHT31;53861;53.422;14.530;2022-10-16T10:24:43;20.07;71.32
66096;SHT31;53861;53.422;14.530;2022-10-16T10:27:11;20.05;73.87
66096;SHT31;53861;53.422;14.530;2022-10-16T10:29:43;21.32;75.26
66096;SHT31;53861;53.422;14.530;2022-10-16T10:32:21;21.79;75.64
66096;SHT31;53861;53.422;14.530;2022-10-16T10:34:55;22.50;66.51
66096;SHT31;53861;53.422;14.530;2022-10-16T10:37:27;22.53;71.01
66096;SHT31;53861;53.422;14.530;2022-10-16T10:39:58;22.61;67.76
66096;SHT31;53861;53.422;14.530;2022-10-16T10:42:34;22.59;66.62
66096;SHT31;53861;53.422;14.530;2022-10-16T10:45:15;23.04;63.52
66096;SHT31;53861;53.422;14.530;2022-10-16T10:47:46;23.12;66.84
66096;SHT31;53861;53.422;14.530;2022-10-16T10:50:16;23.25;63.86
66096;SHT31;53861;53.422;14.530;2022-10-16T10:52:56;24.77;63.92
66096;SHT31;53861;53.422;14.530;2022-10-16T10:55:26;24.26;58.83
66096;SHT31;53861;53.422;14.530;2022-10-16T10:58:01;24.24;63.58
66096;SHT31;53861;53.422;14.530;2022-10-16T11:00:36;25.16;55.83
66096;SHT31;53861;53.422;14.530;2022-10-16T11:03:09;24.56;58.61
66096;SHT31;53861;53.422;14.530;2022-10-16T11:05:40;24.64;61.54
66096;SHT31;53861;53.422;14.530;2022-10-16T11:08:10;24.74;65.57
66096;SHT31;53861;53.422;14.530;2022-10-16T11:10:40;25.23;59.07
66096;SHT31;53861;53.422;14.530;2022-10-16T11:13:11;26.23;54.48
66096;SHT31;53861;53.422;14.530;2022-10-16T11:15:43;28.05;53.82
66096;SHT31;53861;53.422;14.530;2022-10-16T11:18:11;27.67;58.37
66096;SHT31;53861;53.422;14.530;2022-10-16T11:20:42;27.35;51.81
66096;SHT31;53861;53.422;14.530;2022-10-16T11:23:14;27.08;52.78
66096;SHT31;53861;53.422;14.530;2022-10-16T11:25:42;27.19;50.85
66096;SHT31;53861;53.422;14.530;2022-10-16T11:28:10;27.57;53.91
66096;SHT31;53861;53.422;14.530;2022-10-16T11:30:40;28.35;50.93
66096;SHT31;53861;53.422;14.530;2022-10-16T11:33:19;28.02;48.22
66096;SHT31;53861;53.422;14.530;2022-10-16T11:35:50;27.02;53.72
66096;SHT31;53861;53.422;14.530;2022-10-16T11:38:22;26.55;54.97
66096;SHT31;53861;53.422;14.530;2022-10-16T11:40:53;27.60;51.65
66096;SHT31;53861;53.422;14.530;2022-10-16T11:43:24;29.19;51.33
66096;SHT31;53861;53.422;14.530;2022-10-16T11:45:55;28.72;48.28
66096;SHT31;53861;53.422;14.530;2022-10-16T11:48:25;29.27;48.87
66096;SHT31;53861;53.422;14.530;2022-10-16T11:50:56;29.27;49.97
66096;SHT31;53861;53.422;14.530;2022-10-16T11:53:26;28.79;50.72
66096;SHT31;53861;53.422;14.530;2022-10-16T11:55:58;28.32;50.97
66096;SHT31;53861;53.422;14.530;2022-10-16T11:58:25;27.51;54.39
66096;SHT31;53861;53.422;14.530;2022-10-16T12:01:01;28.18;51.89
66096;SHT31;53861;53.422;14.530;2022-10-16T12:03:39;27.13;52.74
66096;SHT31;53861;53.422;14.530;2022-10-16T12:06:13;27.09;53.90
66096;SHT31;53861;53.422;14.530;2022-10-16T12:08:47;26.69;55.50
66096;SHT31;53861;53.422;14.530;2022-10-16T12:11:22;27.39;52.43
66096;SHT31;53861;53.422;14.530;2022-10-16T12:13:50;26.71;53.51
66096;SHT31;53861;53.422;14.530;2022-10-16T12:16:20;27.20;58.91
66096;SHT31;53861;53.422;14.530;2022-10-16T12:19:02;27.45;53.17
66096;SHT31;53861;53.422;14.530;2022-10-16T12:21:32;27.80;55.54
66096;SHT31;53861;53.422;14.530;2022-10-16T12:24:00;28.31;54.25
66096;SHT31;53861;53.422;14.530;2022-10-16T12:26:29;27.32;56.43
66096;SHT31;53861;53.422;14.530;2022-10-16T12:29:09;26.33;55.31
66096;SHT31;53861;53.422;14.530;2022-10-16T12:31:46;26.20;59.21
66096;SHT31;53861;53.422;14.530;2022-10-16T12:34:19;26.38;54.68
66096;SHT31;53861;53.422;14.530;2022-10-16T12:36:49;23.92;61.36
66096;SHT31;53861;53.422;14.530;2022-10-16T12:39:20;23.51;61.83
66096;SHT31;53861;53.422;14.530;2022-10-16T12:41:47;24.63;59.58
66096;SHT31;53861;53.422;14.530;2022-10-16T12:44:21;24.37;62.80
66096;SHT31;53861;53.422;14.530;2022-10-16T12:46:51;23.17;64.49
66096;SHT31;53861;53.422;14.530;2022-10-16T12:49:29;23.19;63.83
66096;SHT31;53861;53.422;14.530;2022-10-16T12:51:57;24.05;65.82
66096;SHT31;53861;53.422;14.530;2022-10-16T12:54:25;24.70;62.01
66096;SHT31;53861;53.422;14.530;2022-10-16T12:57:02;23.27;63.09
66096;SHT31;53861;53.422;14.530;2022-10-16T12:59:35;23.92;63.51
66096;SHT31;53861;53.422;14.530;2022-10-16T13:02:14;22.97;66.35
66096;SHT31;53861;53.422;14.530;2022-10-16T13:04:49;22.24;66.14
66096;SHT31;53861;53.422;14.530;2022-10-16T13:07:25;22.28;66.05
66096;SHT31;53861;53.422;14.530;2022-10-16T13:10:02;21.74;68.17
66096;SHT31;53861;53.422;14.530;2022-10-16T13:12:37;21.37;68.02
66096;SHT31;53861;53.422;14.530;2022-10-16T13:15:23;21.85;69.12
66096;SHT31;53861;53.422;14.530;2022-10-16T13:17:55;21.99;67.48
66096;SHT31;53861;53.422;14.530;2022-10-16T13:20:28;22.98;70.32
66096;SHT31;53861;53.422;14.530;2022-10-16T13:23:02;23.11;65.66
66096;SHT31;53861;53.422;14.530;2022-10-16T13:25:33;23.11;66.35
66096;SHT31;53861;53.422;14.530;2022-10-16T13:28:04;23.51;67.70
66096;SHT31;53861;53.422;14.530;2022-10-16T13:30:33;23.49;65.12
66096;SHT31;53861;53.422;14.530;2022-10-16T13:33:01;22.32;64.35
66096;SHT31;53861;53.422;14.530;2022-10-16T13:35:32;22.42;63.01
66096;SHT31;53861;53.422;14.530;2022-10-16T13:38:03;22.43;64.56
66096;SHT31;53861;53.422;14.530;2022-10-16T13:40:30;22.78;67.63
66096;SHT31;53861;53.422;14.530;2022-10-16T13:42:59;23.08;62.05
66096;SHT31;53861;53.422;14.530;2022-10-16T13:45:26;23.29;64.47
66096;SHT31;53861;53.422;14.530;2022-10-16T13:48:01;23.45;64.67
66096;SHT31;53861;53.422;14.530;2022-10-16T13:50:30;23.38;60.98
66096;SHT31;53861;53.422;14.530;2022-10-16T13:53:04;23.18;60.42
66096;SHT31;53861;53.422;14.530;2022-10-16T13:55:32;23.22;61.34
66096;SHT31;53861;53.422;14.530;2022-10-16T13:58:07;23.44;66.29
66096;SHT31;53861;53.422;14.530;2022-10-16T14:00:34;23.38;61.43
66096;SHT31;53861;53.422;14.530;2022-10-16T14:03:01;23.11;60.97
66096;SHT31;53861;53.422;14.530;2022-10-16T14:05:30;22.87;59.43
66096;SHT31;53861;53.422;14.530;2022-10-16T14:07:57;22.88;60.66
66096;SHT31;53861;53.422;14.530;2022-10-16T14:10:26;22.78;62.60
66096;SHT31;53861;53.422;14.530;2022-10-16T14:12:56;22.80;63.27
66096;SHT31;53861;53.422;14.530;2022-10-16T14:15:23;22.54;61.24
66096;SHT31;53861;53.422;14.530;2022-10-16T14:17:53;22.40;59.68
66096;SHT31;53861;53.422;14.530;2022-10-16T14:20:22;22.43;62.77
66096;SHT31;53861;53.422;14.530;2022-10-16T14:22:59;22.32;63.40
66096;SHT31;53861;53.422;14.530;2022-10-16T14:25:28;22.20;61.17
66096;SHT31;53861;53.422;14.530;2022-10-16T14:27:59;22.08;63.01
66096;SHT31;53861;53.422;14.530;2022-10-16T14:30:29;22.12;62.17
66096;SHT31;53861;53.422;14.530;2022-10-16T14:33:00;21.99;63.92
66096;SHT31;53861;53.422;14.530;2022-10-16T14:35:28;21.96;62.84
66096;SHT31;53861;53.422;14.530;2022-10-16T14:37:55;21.89;63.28
66096;SHT31;53861;53.422;14.530;2022-10-16T14:40:24;21.93;62.10
66096;SHT31;53861;53.422;14.530;2022-10-16T14:42:55;21.48;63.59
66096;SHT31;53861;53.422;14.530;2022-10-16T14:45:24;21.21;66.79
66096;SHT31;53861;53.422;14.530;2022-10-16T14:47:52;20.90;70.19
66096;SHT31;53861;53.422;14.530;2022-10-16T14:50:20;20.65;64.89
66096;SHT31;53861;53.422;14.530;2022-10-16T14:52:47;20.18;65.03
66096;SHT31;53861;53.422;14.530;2022-10-16T14:55:14;20.11;65.78
66096;SHT31;53861;53.422;14.530;2022-10-16T14:57:43;20.02;67.80
66096;SHT31;53861;53.422;14.530;2022-10-16T15:00:16;19.97;66.93
66096;SHT31;53861;53.422;14.530;2022-10-16T15:02:43;20.09;65.01
66096;SHT31;53861;53.422;14.530;2022-10-16T15:05:12;19.73;65.87
66096;SHT31;53861;53.422;14.530;2022-10-16T15:07:39;19.73;66.51
66096;SHT31;53861;53.422;14.530;2022-10-16T15:10:06;19.74;66.63
66096;SHT31;53861;53.422;14.530;2022-10-16T15:12:37;19.51;67.87
66096;SHT31;53861;53.422;14.530;2022-10-16T15:17:53;19.30;68.30
66096;SHT31;53861;53.422;14.530;2022-10-16T15:20:22;19.17;67.72
66096;SHT31;53861;53.422;14.530;2022-10-16T15:22:49;19.09;67.65
66096;SHT31;53861;53.422;14.530;2022-10-16T15:25:23;18.88;68.91
66096;SHT31;53861;53.422;14.530;2022-10-16T15:27:52;18.68;69.43
66096;SHT31;53861;53.422;14.530;2022-10-16T15:30:19;18.66;69.58